sensor_id;sensor_type;location;lat;lon;timestamp;P1;durP1;ratioP1;P2;durP2;ratioP2
20423;SDS011;10371;49.042;8.002;2023-07-09T00:00:47;4.70;;;4.30;;
20423;SDS011;10371;49.042;8.002;2023-07-09T00:01:48;4.60;;;4.10;;
20423;SDS011;10371;49.042;8.002;2023-07-09T00:02:49;4.22;;;3.83;;
20423;SDS011;10371;49.042;8.002;2023-07-09T00:03:50;4.43;;;4.03;;
20423;SDS011;10371;49.042;8.002;2023-07-09T00:04:54;4.30;;;3.90;;
20423;SDS011;10371;49.042;8.002;2023-07-09T00:05:54;5.32;;;4.35;;
20423;SDS011;10371;49.042;8.002;2023-07-09T00:06:55;4.70;;;4.10;;
20423;SDS011;10371;49.042;8.002;2023-07-09T00:07:58;4.85;;;3.85;;
20423;SDS011;10371;49.042;8.002;2023-07-09T00:09:00;3.72;;;3.42;;
20423;SDS011;10371;49.042;8.002;2023-07-09T00:10:00;5.22;;;4.00;;
20423;SDS011;10371;49.042;8.002;2023-07-09T00:11:01;4.07;;;3.53;;
20423;SDS011;10371;49.042;8.002;2023-07-09T00:12:01;4.30;;;3.90;;
20423;SDS011;10371;49.042;8.002;2023-07-09T00:13:02;4.65;;;4.18;;
20423;SDS011;10371;49.042;8.002;2023-07-09T00:14:04;4.68;;;4.18;;
20423;SDS011;10371;49.042;8.002;2023-07-09T00:15:05;6.72;;;4.07;;
20423;SDS011;10371;49.042;8.002;2023-07-09T00:16:13;3.80;;;3.40;;
20423;SDS011;10371;49.042;8.002;2023-07-09T00:17:26;4.43;;;3.78;;
20423;SDS011;10371;49.042;8.002;2023-07-09T00:18:30;4.55;;;4.07;;
20423;SDS011;10371;49.042;8.002;2023-07-09T00:19:30;4.07;;;3.70;;
20423;SDS011;10371;49.042;8.002;2023-07-09T00:20:31;4.35;;;3.80;;
20423;SDS011;10371;49.042;8.002;2023-07-09T00:21:31;4.18;;;3.50;;
20423;SDS011;10371;49.042;8.002;2023-07-09T00:22:34;5.22;;;4.10;;
20423;SDS011;10371;49.042;8.002;2023-07-09T00:23:34;4.38;;;3.85;;
20423;SDS011;10371;49.042;8.002;2023-07-09T00:24:34;5.28;;;3.60;;
20423;SDS011;10371;49.042;8.002;2023-07-09T00:25:35;4.43;;;3.75;;
20423;SDS011;10371;49.042;8.002;2023-07-09T00:26:36;3.80;;;3.47;;
20423;SDS011;10371;49.042;8.002;2023-07-09T00:27:38;3.97;;;3.58;;
20423;SDS011;10371;49.042;8.002;2023-07-09T00:28:38;3.50;;;3.20;;
20423;SDS011;10371;49.042;8.002;2023-07-09T00:29:39;3.70;;;3.30;;
20423;SDS011;10371;49.042;8.002;2023-07-09T00:30:39;4.70;;;3.78;;
20423;SDS011;10371;49.042;8.002;2023-07-09T00:31:39;3.92;;;3.50;;
20423;SDS011;10371;49.042;8.002;2023-07-09T00:32:41;4.75;;;4.13;;
20423;SDS011;10371;49.042;8.002;2023-07-09T00:33:44;4.88;;;3.92;;
20423;SDS011;10371;49.042;8.002;2023-07-09T00:34:46;4.15;;;3.75;;
20423;SDS011;10371;49.042;8.002;2023-07-09T00:35:50;7.10;;;4.47;;
20423;SDS011;10371;49.042;8.002;2023-07-09T00:36:51;4.20;;;3.75;;
20423;SDS011;10371;49.042;8.002;2023-07-09T00:37:51;3.83;;;3.50;;
20423;SDS011;10371;49.042;8.002;2023-07-09T00:38:51;3.58;;;3.25;;
20423;SDS011;10371;49.042;8.002;2023-07-09T00:39:52;4.85;;;3.80;;
20423;SDS011;10371;49.042;8.002;2023-07-09T00:41:59;4.47;;;3.50;;
20423;SDS011;10371;49.042;8.002;2023-07-09T00:42:59;4.75;;;3.22;;
20423;SDS011;10371;49.042;8.002;2023-07-09T00:44:13;4.22;;;3.83;;
20423;SDS011;10371;49.042;8.002;2023-07-09T00:45:19;4.00;;;3.60;;
20423;SDS011;10371;49.042;8.002;2023-07-09T00:47:25;3.90;;;3.50;;
20423;SDS011;10371;49.042;8.002;2023-07-09T00:48:31;4.75;;;4.05;;
20423;SDS011;10371;49.042;8.002;2023-07-09T00:49:32;4.07;;;3.60;;
20423;SDS011;10371;49.042;8.002;2023-07-09T00:51:53;4.45;;;3.88;;
20423;SDS011;10371;49.042;8.002;2023-07-09T00:52:55;4.40;;;3.97;;
20423;SDS011;10371;49.042;8.002;2023-07-09T00:53:59;5.03;;;3.83;;
20423;SDS011;10371;49.042;8.002;2023-07-09T00:55:10;5.00;;;3.88;;
20423;SDS011;10371;49.042;8.002;2023-07-09T00:56:14;4.50;;;3.97;;
20423;SDS011;10371;49.042;8.002;2023-07-09T00:57:23;4.47;;;4.07;;
20423;SDS011;10371;49.042;8.002;2023-07-09T00:58:26;4.13;;;3.72;;
20423;SDS011;10371;49.042;8.002;2023-07-09T00:59:28;3.85;;;3.55;;
20423;SDS011;10371;49.042;8.002;2023-07-09T01:00:36;5.18;;;3.75;;
20423;SDS011;10371;49.042;8.002;2023-07-09T01:01:46;4.93;;;3.78;;
20423;SDS011;10371;49.042;8.002;2023-07-09T01:02:50;3.55;;;3.25;;
20423;SDS011;10371;49.042;8.002;2023-07-09T01:03:51;4.22;;;3.60;;
20423;SDS011;10371;49.042;8.002;2023-07-09T01:04:57;4.70;;;4.18;;
20423;SDS011;10371;49.042;8.002;2023-07-09T01:06:01;5.28;;;3.60;;
20423;SDS011;10371;49.042;8.002;2023-07-09T01:07:03;4.65;;;3.60;;
20423;SDS011;10371;49.042;8.002;2023-07-09T01:08:05;3.78;;;3.47;;
20423;SDS011;10371;49.042;8.002;2023-07-09T01:09:09;3.92;;;3.50;;
20423;SDS011;10371;49.042;8.002;2023-07-09T01:10:10;3.95;;;3.60;;
20423;SDS011;10371;49.042;8.002;2023-07-09T01:11:14;4.18;;;3.45;;
20423;SDS011;10371;49.042;8.002;2023-07-09T01:12:21;4.00;;;3.70;;
20423;SDS011;10371;49.042;8.002;2023-07-09T01:13:22;4.40;;;3.47;;
20423;SDS011;10371;49.042;8.002;2023-07-09T01:14:23;4.18;;;3.65;;
20423;SDS011;10371;49.042;8.002;2023-07-09T01:15:25;4.50;;;4.00;;
20423;SDS011;10371;49.042;8.002;2023-07-09T01:16:27;4.57;;;3.90;;
20423;SDS011;10371;49.042;8.002;2023-07-09T01:17:30;4.00;;;3.67;;
20423;SDS011;10371;49.042;8.002;2023-07-09T01:18:31;4.30;;;3.90;;
20423;SDS011;10371;49.042;8.002;2023-07-09T01:19:36;4.15;;;3.72;;
20423;SDS011;10371;49.042;8.002;2023-07-09T01:20:47;4.53;;;4.10;;
20423;SDS011;10371;49.042;8.002;2023-07-09T01:21:48;4.35;;;3.95;;
20423;SDS011;10371;49.042;8.002;2023-07-09T01:22:49;5.57;;;4.20;;
20423;SDS011;10371;49.042;8.002;2023-07-09T01:23:50;4.35;;;3.92;;
20423;SDS011;10371;49.042;8.002;2023-07-09T01:25:00;4.10;;;3.72;;
20423;SDS011;10371;49.042;8.002;2023-07-09T01:26:02;4.78;;;4.28;;
20423;SDS011;10371;49.042;8.002;2023-07-09T01:27:02;4.47;;;3.90;;
20423;SDS011;10371;49.042;8.002;2023-07-09T01:28:03;4.47;;;4.03;;
20423;SDS011;10371;49.042;8.002;2023-07-09T01:29:04;5.85;;;4.35;;
20423;SDS011;10371;49.042;8.002;2023-07-09T01:30:09;4.53;;;3.80;;
20423;SDS011;10371;49.042;8.002;2023-07-09T01:31:12;5.55;;;4.45;;
20423;SDS011;10371;49.042;8.002;2023-07-09T01:32:15;4.90;;;4.50;;
20423;SDS011;10371;49.042;8.002;2023-07-09T01:33:18;4.60;;;4.20;;
20423;SDS011;10371;49.042;8.002;2023-07-09T01:34:18;4.78;;;3.85;;
20423;SDS011;10371;49.042;8.002;2023-07-09T01:35:21;5.13;;;3.85;;
20423;SDS011;10371;49.042;8.002;2023-07-09T01:36:22;4.30;;;3.83;;
20423;SDS011;10371;49.042;8.002;2023-07-09T01:37:24;4.75;;;4.13;;
20423;SDS011;10371;49.042;8.002;2023-07-09T01:38:26;4.22;;;3.83;;
20423;SDS011;10371;49.042;8.002;2023-07-09T01:39:30;4.55;;;4.07;;
20423;SDS011;10371;49.042;8.002;2023-07-09T01:40:30;4.68;;;3.78;;
20423;SDS011;10371;49.042;8.002;2023-07-09T01:41:31;4.88;;;4.25;;
20423;SDS011;10371;49.042;8.002;2023-07-09T01:42:34;4.32;;;3.83;;
20423;SDS011;10371;49.042;8.002;2023-07-09T01:43:36;6.07;;;3.72;;
20423;SDS011;10371;49.042;8.002;2023-07-09T01:44:36;3.95;;;3.63;;
20423;SDS011;10371;49.042;8.002;2023-07-09T01:45:38;5.72;;;3.92;;
20423;SDS011;10371;49.042;8.002;2023-07-09T01:46:38;4.28;;;3.88;;
20423;SDS011;10371;49.042;8.002;2023-07-09T01:47:39;3.97;;;3.67;;
20423;SDS011;10371;49.042;8.002;2023-07-09T01:48:39;4.40;;;4.00;;
20423;SDS011;10371;49.042;8.002;2023-07-09T01:49:44;5.05;;;4.05;;
20423;SDS011;10371;49.042;8.002;2023-07-09T01:50:46;4.65;;;4.25;;
20423;SDS011;10371;49.042;8.002;2023-07-09T01:51:49;4.10;;;3.70;;
20423;SDS011;10371;49.042;8.002;2023-07-09T01:52:50;4.05;;;3.75;;
20423;SDS011;10371;49.042;8.002;2023-07-09T01:53:51;4.20;;;3.83;;
20423;SDS011;10371;49.042;8.002;2023-07-09T01:54:53;4.05;;;3.67;;
20423;SDS011;10371;49.042;8.002;2023-07-09T01:55:54;3.95;;;3.65;;
20423;SDS011;10371;49.042;8.002;2023-07-09T01:56:54;4.85;;;4.32;;
20423;SDS011;10371;49.042;8.002;2023-07-09T01:58:01;4.43;;;3.80;;
20423;SDS011;10371;49.042;8.002;2023-07-09T01:59:06;5.22;;;4.57;;
20423;SDS011;10371;49.042;8.002;2023-07-09T02:00:07;4.18;;;3.78;;
20423;SDS011;10371;49.042;8.002;2023-07-09T02:01:13;4.68;;;4.18;;
20423;SDS011;10371;49.042;8.002;2023-07-09T02:02:15;5.22;;;4.32;;
20423;SDS011;10371;49.042;8.002;2023-07-09T02:03:18;4.95;;;4.30;;
20423;SDS011;10371;49.042;8.002;2023-07-09T02:04:19;3.92;;;3.53;;
20423;SDS011;10371;49.042;8.002;2023-07-09T02:05:19;3.92;;;3.53;;
20423;SDS011;10371;49.042;8.002;2023-07-09T02:06:20;4.38;;;3.97;;
20423;SDS011;10371;49.042;8.002;2023-07-09T02:07:21;5.13;;;4.20;;
20423;SDS011;10371;49.042;8.002;2023-07-09T02:08:23;4.20;;;3.80;;
20423;SDS011;10371;49.042;8.002;2023-07-09T02:09:23;4.07;;;3.78;;
20423;SDS011;10371;49.042;8.002;2023-07-09T02:10:23;4.80;;;3.90;;
20423;SDS011;10371;49.042;8.002;2023-07-09T02:11:24;4.43;;;4.03;;
20423;SDS011;10371;49.042;8.002;2023-07-09T02:12:24;3.55;;;3.17;;
20423;SDS011;10371;49.042;8.002;2023-07-09T02:13:25;4.35;;;3.95;;
20423;SDS011;10371;49.042;8.002;2023-07-09T02:14:25;6.95;;;3.60;;
20423;SDS011;10371;49.042;8.002;2023-07-09T02:15:25;4.53;;;3.92;;
20423;SDS011;10371;49.042;8.002;2023-07-09T02:16:26;4.40;;;3.65;;
20423;SDS011;10371;49.042;8.002;2023-07-09T02:17:26;4.75;;;4.10;;
20423;SDS011;10371;49.042;8.002;2023-07-09T02:18:27;4.32;;;3.92;;
20423;SDS011;10371;49.042;8.002;2023-07-09T02:19:29;4.68;;;3.92;;
20423;SDS011;10371;49.042;8.002;2023-07-09T02:20:29;4.43;;;3.90;;
20423;SDS011;10371;49.042;8.002;2023-07-09T02:21:30;5.70;;;3.97;;
20423;SDS011;10371;49.042;8.002;2023-07-09T02:22:30;4.13;;;3.72;;
20423;SDS011;10371;49.042;8.002;2023-07-09T02:23:31;4.10;;;3.70;;
20423;SDS011;10371;49.042;8.002;2023-07-09T02:24:31;4.43;;;3.85;;
20423;SDS011;10371;49.042;8.002;2023-07-09T02:25:31;5.25;;;4.30;;
20423;SDS011;10371;49.042;8.002;2023-07-09T02:26:32;4.20;;;3.80;;
20423;SDS011;10371;49.042;8.002;2023-07-09T02:27:32;5.10;;;4.18;;
20423;SDS011;10371;49.042;8.002;2023-07-09T02:28:33;4.15;;;3.78;;
20423;SDS011;10371;49.042;8.002;2023-07-09T02:29:33;4.20;;;3.63;;
20423;SDS011;10371;49.042;8.002;2023-07-09T02:30:34;4.22;;;3.83;;
20423;SDS011;10371;49.042;8.002;2023-07-09T02:31:34;4.47;;;4.03;;
20423;SDS011;10371;49.042;8.002;2023-07-09T02:32:35;5.75;;;4.03;;
20423;SDS011;10371;49.042;8.002;2023-07-09T02:33:35;4.38;;;3.75;;
20423;SDS011;10371;49.042;8.002;2023-07-09T02:34:35;4.40;;;4.00;;
20423;SDS011;10371;49.042;8.002;2023-07-09T02:35:36;4.00;;;3.60;;
20423;SDS011;10371;49.042;8.002;2023-07-09T02:36:36;4.40;;;3.72;;
20423;SDS011;10371;49.042;8.002;2023-07-09T02:37:37;5.28;;;4.38;;
20423;SDS011;10371;49.042;8.002;2023-07-09T02:38:37;4.55;;;4.05;;
20423;SDS011;10371;49.042;8.002;2023-07-09T02:39:37;6.93;;;4.30;;
20423;SDS011;10371;49.042;8.002;2023-07-09T02:40:38;4.20;;;3.80;;
20423;SDS011;10371;49.042;8.002;2023-07-09T02:41:39;5.53;;;4.00;;
20423;SDS011;10371;49.042;8.002;2023-07-09T02:42:40;4.13;;;3.75;;
20423;SDS011;10371;49.042;8.002;2023-07-09T02:43:40;5.75;;;4.13;;
20423;SDS011;10371;49.042;8.002;2023-07-09T02:44:41;4.85;;;4.15;;
20423;SDS011;10371;49.042;8.002;2023-07-09T02:45:42;4.20;;;3.80;;
20423;SDS011;10371;49.042;8.002;2023-07-09T02:46:42;4.47;;;4.07;;
20423;SDS011;10371;49.042;8.002;2023-07-09T02:47:43;4.65;;;3.72;;
20423;SDS011;10371;49.042;8.002;2023-07-09T02:48:44;4.22;;;3.83;;
20423;SDS011;10371;49.042;8.002;2023-07-09T02:49:44;4.30;;;3.90;;
20423;SDS011;10371;49.042;8.002;2023-07-09T02:50:44;4.90;;;3.90;;
20423;SDS011;10371;49.042;8.002;2023-07-09T02:51:45;4.50;;;4.10;;
20423;SDS011;10371;49.042;8.002;2023-07-09T02:52:45;5.75;;;4.30;;
20423;SDS011;10371;49.042;8.002;2023-07-09T02:53:45;5.63;;;4.13;;
20423;SDS011;10371;49.042;8.002;2023-07-09T02:54:45;5.20;;;4.32;;
20423;SDS011;10371;49.042;8.002;2023-07-09T02:55:46;4.38;;;3.97;;
20423;SDS011;10371;49.042;8.002;2023-07-09T02:56:46;5.15;;;4.00;;
20423;SDS011;10371;49.042;8.002;2023-07-09T02:57:46;5.05;;;4.28;;
20423;SDS011;10371;49.042;8.002;2023-07-09T02:58:46;4.75;;;4.35;;
20423;SDS011;10371;49.042;8.002;2023-07-09T02:59:47;4.90;;;4.40;;
20423;SDS011;10371;49.042;8.002;2023-07-09T03:00:50;6.60;;;4.65;;
20423;SDS011;10371;49.042;8.002;2023-07-09T03:01:53;4.70;;;4.30;;
20423;SDS011;10371;49.042;8.002;2023-07-09T03:02:53;5.00;;;4.50;;
20423;SDS011;10371;49.042;8.002;2023-07-09T03:03:54;5.20;;;4.28;;
20423;SDS011;10371;49.042;8.002;2023-07-09T03:04:54;4.65;;;4.22;;
20423;SDS011;10371;49.042;8.002;2023-07-09T03:05:55;4.85;;;4.45;;
20423;SDS011;10371;49.042;8.002;2023-07-09T03:06:55;4.55;;;4.15;;
20423;SDS011;10371;49.042;8.002;2023-07-09T03:07:55;5.72;;;5.15;;
20423;SDS011;10371;49.042;8.002;2023-07-09T03:08:55;5.00;;;4.50;;
20423;SDS011;10371;49.042;8.002;2023-07-09T03:09:56;4.65;;;4.10;;
20423;SDS011;10371;49.042;8.002;2023-07-09T03:10:56;4.65;;;4.25;;
20423;SDS011;10371;49.042;8.002;2023-07-09T03:11:56;4.32;;;4.00;;
20423;SDS011;10371;49.042;8.002;2023-07-09T03:12:57;4.60;;;4.15;;
20423;SDS011;10371;49.042;8.002;2023-07-09T03:13:57;4.72;;;4.32;;
20423;SDS011;10371;49.042;8.002;2023-07-09T03:14:58;5.00;;;4.50;;
20423;SDS011;10371;49.042;8.002;2023-07-09T03:15:59;4.80;;;4.30;;
20423;SDS011;10371;49.042;8.002;2023-07-09T03:16:59;4.97;;;4.55;;
20423;SDS011;10371;49.042;8.002;2023-07-09T03:17:59;5.47;;;4.70;;
20423;SDS011;10371;49.042;8.002;2023-07-09T03:18:59;4.75;;;4.20;;
20423;SDS011;10371;49.042;8.002;2023-07-09T03:20:00;5.00;;;4.50;;
20423;SDS011;10371;49.042;8.002;2023-07-09T03:21:01;6.55;;;4.50;;
20423;SDS011;10371;49.042;8.002;2023-07-09T03:22:01;4.40;;;3.97;;
20423;SDS011;10371;49.042;8.002;2023-07-09T03:23:01;4.82;;;4.35;;
20423;SDS011;10371;49.042;8.002;2023-07-09T03:24:01;4.63;;;4.22;;
20423;SDS011;10371;49.042;8.002;2023-07-09T03:25:02;4.82;;;4.30;;
20423;SDS011;10371;49.042;8.002;2023-07-09T03:26:02;5.00;;;4.07;;
20423;SDS011;10371;49.042;8.002;2023-07-09T03:27:03;6.00;;;4.25;;
20423;SDS011;10371;49.042;8.002;2023-07-09T03:28:04;4.85;;;4.40;;
20423;SDS011;10371;49.042;8.002;2023-07-09T03:29:04;4.90;;;4.43;;
20423;SDS011;10371;49.042;8.002;2023-07-09T03:30:05;4.47;;;4.07;;
20423;SDS011;10371;49.042;8.002;2023-07-09T03:31:05;4.50;;;4.10;;
20423;SDS011;10371;49.042;8.002;2023-07-09T03:32:06;5.03;;;4.53;;
20423;SDS011;10371;49.042;8.002;2023-07-09T03:33:06;4.80;;;4.40;;
20423;SDS011;10371;49.042;8.002;2023-07-09T03:34:06;4.30;;;3.90;;
20423;SDS011;10371;49.042;8.002;2023-07-09T03:35:07;5.45;;;4.55;;
20423;SDS011;10371;49.042;8.002;2023-07-09T03:36:08;4.97;;;4.30;;
20423;SDS011;10371;49.042;8.002;2023-07-09T03:37:08;4.93;;;4.45;;
20423;SDS011;10371;49.042;8.002;2023-07-09T03:38:09;5.13;;;4.60;;
20423;SDS011;10371;49.042;8.002;2023-07-09T03:39:11;5.30;;;4.80;;
20423;SDS011;10371;49.042;8.002;2023-07-09T03:40:19;5.70;;;5.10;;
20423;SDS011;10371;49.042;8.002;2023-07-09T03:41:23;5.32;;;4.82;;
20423;SDS011;10371;49.042;8.002;2023-07-09T03:42:24;5.70;;;5.10;;
20423;SDS011;10371;49.042;8.002;2023-07-09T03:43:25;6.47;;;5.60;;
20423;SDS011;10371;49.042;8.002;2023-07-09T03:44:25;5.55;;;5.07;;
20423;SDS011;10371;49.042;8.002;2023-07-09T03:45:26;6.78;;;5.60;;
20423;SDS011;10371;49.042;8.002;2023-07-09T03:46:26;5.53;;;5.03;;
20423;SDS011;10371;49.042;8.002;2023-07-09T03:47:26;5.68;;;4.80;;
20423;SDS011;10371;49.042;8.002;2023-07-09T03:48:27;5.50;;;5.00;;
20423;SDS011;10371;49.042;8.002;2023-07-09T03:49:27;5.40;;;4.93;;
20423;SDS011;10371;49.042;8.002;2023-07-09T03:50:27;5.55;;;4.63;;
20423;SDS011;10371;49.042;8.002;2023-07-09T03:51:27;5.60;;;5.00;;
20423;SDS011;10371;49.042;8.002;2023-07-09T03:52:28;5.72;;;5.22;;
20423;SDS011;10371;49.042;8.002;2023-07-09T03:53:28;5.32;;;4.78;;
20423;SDS011;10371;49.042;8.002;2023-07-09T03:54:28;5.25;;;4.70;;
20423;SDS011;10371;49.042;8.002;2023-07-09T03:55:29;5.70;;;5.10;;
20423;SDS011;10371;49.042;8.002;2023-07-09T03:56:29;5.57;;;4.72;;
20423;SDS011;10371;49.042;8.002;2023-07-09T03:57:33;5.43;;;4.20;;
20423;SDS011;10371;49.042;8.002;2023-07-09T03:58:34;5.30;;;4.80;;
20423;SDS011;10371;49.042;8.002;2023-07-09T03:59:35;6.20;;;5.15;;
20423;SDS011;10371;49.042;8.002;2023-07-09T04:00:37;5.55;;;4.97;;
20423;SDS011;10371;49.042;8.002;2023-07-09T04:01:37;6.07;;;4.72;;
20423;SDS011;10371;49.042;8.002;2023-07-09T04:02:38;6.75;;;5.28;;
20423;SDS011;10371;49.042;8.002;2023-07-09T04:03:39;5.88;;;5.28;;
20423;SDS011;10371;49.042;8.002;2023-07-09T04:04:39;5.93;;;5.35;;
20423;SDS011;10371;49.042;8.002;2023-07-09T04:05:39;5.35;;;4.85;;
20423;SDS011;10371;49.042;8.002;2023-07-09T04:06:39;5.28;;;4.60;;
20423;SDS011;10371;49.042;8.002;2023-07-09T04:07:40;5.78;;;4.82;;
20423;SDS011;10371;49.042;8.002;2023-07-09T04:08:40;5.25;;;4.75;;
20423;SDS011;10371;49.042;8.002;2023-07-09T04:09:41;5.43;;;4.88;;
20423;SDS011;10371;49.042;8.002;2023-07-09T04:10:41;5.85;;;4.40;;
20423;SDS011;10371;49.042;8.002;2023-07-09T04:11:41;5.47;;;4.00;;
20423;SDS011;10371;49.042;8.002;2023-07-09T04:12:42;5.68;;;4.63;;
20423;SDS011;10371;49.042;8.002;2023-07-09T04:13:42;4.70;;;4.30;;
20423;SDS011;10371;49.042;8.002;2023-07-09T04:14:42;5.13;;;4.45;;
20423;SDS011;10371;49.042;8.002;2023-07-09T04:15:43;5.35;;;4.47;;
20423;SDS011;10371;49.042;8.002;2023-07-09T04:16:43;4.47;;;4.07;;
20423;SDS011;10371;49.042;8.002;2023-07-09T04:17:44;4.82;;;4.28;;
20423;SDS011;10371;49.042;8.002;2023-07-09T04:18:44;4.65;;;4.25;;
20423;SDS011;10371;49.042;8.002;2023-07-09T04:19:44;4.72;;;4.22;;
20423;SDS011;10371;49.042;8.002;2023-07-09T04:20:51;5.30;;;4.45;;
20423;SDS011;10371;49.042;8.002;2023-07-09T04:21:52;6.57;;;4.68;;
20423;SDS011;10371;49.042;8.002;2023-07-09T04:22:52;5.22;;;4.72;;
20423;SDS011;10371;49.042;8.002;2023-07-09T04:23:52;5.68;;;4.40;;
20423;SDS011;10371;49.042;8.002;2023-07-09T04:24:53;5.30;;;4.70;;
20423;SDS011;10371;49.042;8.002;2023-07-09T04:25:53;5.00;;;4.60;;
20423;SDS011;10371;49.042;8.002;2023-07-09T04:26:53;5.95;;;4.32;;
20423;SDS011;10371;49.042;8.002;2023-07-09T04:27:56;5.25;;;4.32;;
20423;SDS011;10371;49.042;8.002;2023-07-09T04:28:56;4.60;;;4.20;;
20423;SDS011;10371;49.042;8.002;2023-07-09T04:29:56;6.22;;;4.03;;
20423;SDS011;10371;49.042;8.002;2023-07-09T04:30:57;5.85;;;4.63;;
20423;SDS011;10371;49.042;8.002;2023-07-09T04:31:57;5.82;;;4.50;;
20423;SDS011;10371;49.042;8.002;2023-07-09T04:32:57;5.03;;;4.38;;
20423;SDS011;10371;49.042;8.002;2023-07-09T04:33:57;5.15;;;4.65;;
20423;SDS011;10371;49.042;8.002;2023-07-09T04:34:58;6.00;;;4.32;;
20423;SDS011;10371;49.042;8.002;2023-07-09T04:35:58;5.45;;;4.40;;
20423;SDS011;10371;49.042;8.002;2023-07-09T04:36:58;5.53;;;5.03;;
20423;SDS011;10371;49.042;8.002;2023-07-09T04:37:59;4.90;;;4.32;;
20423;SDS011;10371;49.042;8.002;2023-07-09T04:38:59;6.00;;;4.40;;
20423;SDS011;10371;49.042;8.002;2023-07-09T04:39:59;4.72;;;4.10;;
20423;SDS011;10371;49.042;8.002;2023-07-09T04:41:00;5.28;;;4.22;;
20423;SDS011;10371;49.042;8.002;2023-07-09T04:42:00;4.80;;;4.25;;
20423;SDS011;10371;49.042;8.002;2023-07-09T04:43:01;4.88;;;4.47;;
20423;SDS011;10371;49.042;8.002;2023-07-09T04:44:01;6.50;;;4.50;;
20423;SDS011;10371;49.042;8.002;2023-07-09T04:45:01;5.07;;;4.57;;
20423;SDS011;10371;49.042;8.002;2023-07-09T04:46:02;4.95;;;4.38;;
20423;SDS011;10371;49.042;8.002;2023-07-09T04:47:02;5.20;;;4.68;;
20423;SDS011;10371;49.042;8.002;2023-07-09T04:48:02;5.03;;;4.57;;
20423;SDS011;10371;49.042;8.002;2023-07-09T04:49:03;5.18;;;4.68;;
20423;SDS011;10371;49.042;8.002;2023-07-09T04:50:05;5.53;;;4.40;;
20423;SDS011;10371;49.042;8.002;2023-07-09T04:51:07;5.55;;;4.72;;
20423;SDS011;10371;49.042;8.002;2023-07-09T04:52:08;4.93;;;4.38;;
20423;SDS011;10371;49.042;8.002;2023-07-09T04:53:11;5.20;;;4.18;;
20423;SDS011;10371;49.042;8.002;2023-07-09T04:54:11;4.63;;;4.07;;
20423;SDS011;10371;49.042;8.002;2023-07-09T04:55:15;4.35;;;3.97;;
20423;SDS011;10371;49.042;8.002;2023-07-09T04:56:18;4.32;;;3.92;;
20423;SDS011;10371;49.042;8.002;2023-07-09T04:57:19;4.70;;;4.30;;
20423;SDS011;10371;49.042;8.002;2023-07-09T04:58:19;4.60;;;4.20;;
20423;SDS011;10371;49.042;8.002;2023-07-09T04:59:19;5.53;;;4.47;;
20423;SDS011;10371;49.042;8.002;2023-07-09T05:00:20;4.75;;;4.18;;
20423;SDS011;10371;49.042;8.002;2023-07-09T05:01:20;6.35;;;4.35;;
20423;SDS011;10371;49.042;8.002;2023-07-09T05:02:21;5.78;;;4.80;;
20423;SDS011;10371;49.042;8.002;2023-07-09T05:03:22;6.32;;;4.70;;
20423;SDS011;10371;49.042;8.002;2023-07-09T05:04:23;5.20;;;4.47;;
20423;SDS011;10371;49.042;8.002;2023-07-09T05:05:23;5.85;;;4.22;;
20423;SDS011;10371;49.042;8.002;2023-07-09T05:06:23;4.75;;;4.18;;
20423;SDS011;10371;49.042;8.002;2023-07-09T05:07:23;4.50;;;3.97;;
20423;SDS011;10371;49.042;8.002;2023-07-09T05:08:24;7.38;;;4.28;;
20423;SDS011;10371;49.042;8.002;2023-07-09T05:09:24;5.35;;;4.07;;
20423;SDS011;10371;49.042;8.002;2023-07-09T05:10:25;5.03;;;4.45;;
20423;SDS011;10371;49.042;8.002;2023-07-09T05:11:26;5.70;;;4.43;;
20423;SDS011;10371;49.042;8.002;2023-07-09T05:12:27;6.93;;;4.32;;
20423;SDS011;10371;49.042;8.002;2023-07-09T05:13:27;4.95;;;4.32;;
20423;SDS011;10371;49.042;8.002;2023-07-09T05:14:28;7.05;;;4.38;;
20423;SDS011;10371;49.042;8.002;2023-07-09T05:15:28;4.63;;;4.20;;
20423;SDS011;10371;49.042;8.002;2023-07-09T05:16:28;6.72;;;4.43;;
20423;SDS011;10371;49.042;8.002;2023-07-09T05:17:29;5.05;;;3.97;;
20423;SDS011;10371;49.042;8.002;2023-07-09T05:18:30;5.13;;;4.25;;
20423;SDS011;10371;49.042;8.002;2023-07-09T05:19:30;6.70;;;4.05;;
20423;SDS011;10371;49.042;8.002;2023-07-09T05:20:30;4.80;;;4.07;;
20423;SDS011;10371;49.042;8.002;2023-07-09T05:21:30;4.45;;;4.05;;
20423;SDS011;10371;49.042;8.002;2023-07-09T05:22:31;7.45;;;4.68;;
20423;SDS011;10371;49.042;8.002;2023-07-09T05:23:31;4.57;;;4.18;;
20423;SDS011;10371;49.042;8.002;2023-07-09T05:24:31;5.55;;;4.25;;
20423;SDS011;10371;49.042;8.002;2023-07-09T05:25:32;4.53;;;4.05;;
20423;SDS011;10371;49.042;8.002;2023-07-09T05:26:32;5.80;;;4.50;;
20423;SDS011;10371;49.042;8.002;2023-07-09T05:27:32;4.15;;;3.85;;
20423;SDS011;10371;49.042;8.002;2023-07-09T05:28:32;4.53;;;4.13;;
20423;SDS011;10371;49.042;8.002;2023-07-09T05:29:33;4.85;;;4.35;;
20423;SDS011;10371;49.042;8.002;2023-07-09T05:30:33;6.13;;;4.53;;
20423;SDS011;10371;49.042;8.002;2023-07-09T05:31:33;5.15;;;4.30;;
20423;SDS011;10371;49.042;8.002;2023-07-09T05:32:36;5.20;;;4.22;;
20423;SDS011;10371;49.042;8.002;2023-07-09T05:33:37;5.07;;;4.20;;
20423;SDS011;10371;49.042;8.002;2023-07-09T05:34:37;4.95;;;4.38;;
20423;SDS011;10371;49.042;8.002;2023-07-09T05:35:37;4.85;;;4.00;;
20423;SDS011;10371;49.042;8.002;2023-07-09T05:36:38;5.45;;;4.55;;
20423;SDS011;10371;49.042;8.002;2023-07-09T05:37:39;4.70;;;4.20;;
20423;SDS011;10371;49.042;8.002;2023-07-09T05:38:40;4.63;;;4.20;;
20423;SDS011;10371;49.042;8.002;2023-07-09T05:39:40;4.90;;;4.05;;
20423;SDS011;10371;49.042;8.002;2023-07-09T05:40:41;4.22;;;3.92;;
20423;SDS011;10371;49.042;8.002;2023-07-09T05:41:42;4.38;;;3.97;;
20423;SDS011;10371;49.042;8.002;2023-07-09T05:42:43;4.85;;;4.30;;
20423;SDS011;10371;49.042;8.002;2023-07-09T05:43:43;4.28;;;3.92;;
20423;SDS011;10371;49.042;8.002;2023-07-09T05:44:44;4.80;;;4.40;;
20423;SDS011;10371;49.042;8.002;2023-07-09T05:45:45;5.20;;;4.70;;
20423;SDS011;10371;49.042;8.002;2023-07-09T05:46:45;5.95;;;4.55;;
20423;SDS011;10371;49.042;8.002;2023-07-09T05:47:45;6.72;;;4.30;;
20423;SDS011;10371;49.042;8.002;2023-07-09T05:48:45;4.50;;;4.07;;
20423;SDS011;10371;49.042;8.002;2023-07-09T05:49:46;4.80;;;4.40;;
20423;SDS011;10371;49.042;8.002;2023-07-09T05:50:53;5.32;;;4.40;;
20423;SDS011;10371;49.042;8.002;2023-07-09T05:51:54;5.20;;;4.53;;
20423;SDS011;10371;49.042;8.002;2023-07-09T05:52:55;5.25;;;4.57;;
20423;SDS011;10371;49.042;8.002;2023-07-09T05:53:55;4.38;;;3.97;;
20423;SDS011;10371;49.042;8.002;2023-07-09T05:54:56;5.38;;;4.55;;
20423;SDS011;10371;49.042;8.002;2023-07-09T05:55:56;5.93;;;4.78;;
20423;SDS011;10371;49.042;8.002;2023-07-09T05:56:57;5.85;;;4.60;;
20423;SDS011;10371;49.042;8.002;2023-07-09T05:57:57;5.65;;;4.78;;
20423;SDS011;10371;49.042;8.002;2023-07-09T05:58:57;6.63;;;4.70;;
20423;SDS011;10371;49.042;8.002;2023-07-09T05:59:58;5.95;;;4.60;;
20423;SDS011;10371;49.042;8.002;2023-07-09T06:00:58;4.68;;;4.28;;
20423;SDS011;10371;49.042;8.002;2023-07-09T06:01:58;5.72;;;4.38;;
20423;SDS011;10371;49.042;8.002;2023-07-09T06:03:00;5.22;;;4.72;;
20423;SDS011;10371;49.042;8.002;2023-07-09T06:04:01;5.35;;;4.30;;
20423;SDS011;10371;49.042;8.002;2023-07-09T06:05:01;4.40;;;4.00;;
20423;SDS011;10371;49.042;8.002;2023-07-09T06:06:01;6.10;;;4.70;;
20423;SDS011;10371;49.042;8.002;2023-07-09T06:07:02;4.82;;;4.32;;
20423;SDS011;10371;49.042;8.002;2023-07-09T06:08:03;6.07;;;4.70;;
20423;SDS011;10371;49.042;8.002;2023-07-09T06:09:04;4.57;;;4.07;;
20423;SDS011;10371;49.042;8.002;2023-07-09T06:10:05;4.63;;;4.22;;
20423;SDS011;10371;49.042;8.002;2023-07-09T06:11:07;5.45;;;4.15;;
20423;SDS011;10371;49.042;8.002;2023-07-09T06:12:08;7.85;;;4.72;;
20423;SDS011;10371;49.042;8.002;2023-07-09T06:13:09;5.10;;;4.13;;